Time;durP1;ratioP1;P1;durP2;ratioP2;P2;SDS_P1;SDS_P2;PMS_P1;PMS_P2;Temp;Humidity;BMP_temperature;BMP_pressure;BME280_temperature;BME280_humidity;BME280_pressure;Samples;Min_cycle;Max_cycle;Signal;HPM_P1;HPM_P2
2023/03/07 00:00:42;;;;;;;25.30;13.95;;;8.30;51.40;;;;;;5053626;28;20053;-73
2023/03/07 00:03:11;;;;;;;24.63;13.77;;;8.30;51.50;;;;;;5053470;28;20529;-73
2023/03/07 00:05:37;;;;;;;27.45;14.15;;;8.30;51.50;;;;;;5053478;28;20029;-73
2023/03/07 00:08:03;;;;;;;28.25;13.30;;;8.30;51.50;;;;;;5043534;28;20393;-73
2023/03/07 00:10:29;;;;;;;27.25;14.77;;;8.40;51.50;;;;;;5066565;28;20024;-73
2023/03/07 00:12:55;;;;;;;31.33;15.50;;;8.40;51.70;;;;;;5066349;28;20028;-73
2023/03/07 00:15:21;;;;;;;29.90;14.88;;;8.40;51.50;;;;;;5063945;28;20433;-73
2023/03/07 00:17:47;;;;;;;24.98;13.38;;;8.40;51.40;;;;;;5060143;28;20064;-73
2023/03/07 00:20:16;;;;;;;25.42;15.05;;;8.40;51.20;;;;;;5064402;28;20048;-73
2023/03/07 00:22:43;;;;;;;24.42;13.20;;;8.40;51.20;;;;;;5064611;28;20032;-73
2023/03/07 00:25:09;;;;;;;25.65;14.75;;;8.40;51.20;;;;;;5059219;28;20025;-73
2023/03/07 00:27:35;;;;;;;28.80;15.43;;;8.40;51.10;;;;;;5065972;28;20517;-73
2023/03/07 00:30:05;;;;;;;24.45;13.88;;;8.40;51.20;;;;;;5066443;28;20032;-73
2023/03/07 00:32:31;;;;;;;27.70;13.88;;;8.50;51.10;;;;;;5061153;28;20049;-73
2023/03/07 00:34:58;;;;;;;23.77;13.88;;;8.40;51.00;;;;;;5065852;28;20063;-73
2023/03/07 00:37:24;;;;;;;25.80;14.30;;;8.50;51.00;;;;;;5059453;28;20082;-73
2023/03/07 00:39:50;;;;;;;27.48;14.75;;;8.50;51.60;;;;;;5059481;28;20028;-73
2023/03/07 00:42:16;;;;;;;24.77;13.30;;;8.50;51.60;;;;;;5064417;28;20035;-73
2023/03/07 00:44:41;;;;;;;22.05;12.27;;;8.50;51.00;;;;;;5066274;28;20032;-73
2023/03/07 00:47:08;;;;;;;24.33;13.10;;;8.50;51.00;;;;;;5065846;28;20025;-73
2023/03/07 00:49:35;;;;;;;25.90;15.07;;;8.50;51.00;;;;;;5059446;28;20459;-73
2023/03/07 00:52:02;;;;;;;22.25;12.43;;;8.50;51.00;;;;;;5055890;28;20028;-73
2023/03/07 00:54:28;;;;;;;24.98;13.18;;;8.50;50.90;;;;;;5055031;28;20082;-73
2023/03/07 00:56:54;;;;;;;24.08;13.70;;;8.50;50.90;;;;;;5060175;28;20479;-73
2023/03/07 00:59:20;;;;;;;24.08;13.98;;;8.50;50.90;;;;;;5074542;28;20029;-73
2023/03/07 01:01:46;;;;;;;25.20;13.43;;;8.60;51.00;;;;;;5073158;28;20043;-73
2023/03/07 01:04:11;;;;;;;20.70;11.70;;;8.60;51.50;;;;;;5071097;28;20082;-73
2023/03/07 01:06:37;;;;;;;21.27;12.38;;;8.60;50.80;;;;;;5074059;28;20032;-73
2023/03/07 01:09:06;;;;;;;23.48;12.70;;;8.60;50.90;;;;;;5073428;28;20055;-73
2023/03/07 01:11:33;;;;;;;24.08;13.10;;;8.60;51.00;;;;;;5073714;28;20020;-73
2023/03/07 01:14:01;;;;;;;26.48;13.13;;;8.60;51.10;;;;;;5073714;28;20094;-73
2023/03/07 01:16:30;;;;;;;23.15;12.38;;;8.60;51.10;;;;;;5073564;28;20024;-73
2023/03/07 01:18:59;;;;;;;24.00;13.65;;;8.60;51.20;;;;;;5073658;28;20028;-73
2023/03/07 01:21:28;;;;;;;22.90;13.07;;;8.70;51.20;;;;;;5072409;28;20115;-73
2023/03/07 01:23:54;;;;;;;25.55;12.82;;;8.70;51.20;;;;;;5072970;28;20064;-73
2023/03/07 01:26:25;;;;;;;21.70;12.32;;;8.60;51.20;;;;;;5073303;28;20354;-72
2023/03/07 01:28:54;;;;;;;27.40;13.35;;;8.70;51.30;;;;;;5073295;28;20020;-73
2023/03/07 01:31:20;;;;;;;25.27;13.95;;;8.70;51.30;;;;;;5073503;28;20078;-73
2023/03/07 01:33:51;;;;;;;23.05;13.35;;;8.70;51.30;;;;;;5073146;28;20027;-73
2023/03/07 01:36:21;;;;;;;22.88;12.48;;;8.70;51.40;;;;;;5073173;28;20133;-73
2023/03/07 01:38:47;;;;;;;21.58;11.98;;;8.70;51.30;;;;;;5073104;28;20073;-73
2023/03/07 01:41:14;;;;;;;23.52;13.15;;;8.70;51.30;;;;;;5071925;28;20021;-72
2023/03/07 01:43:40;;;;;;;22.90;11.98;;;8.70;52.00;;;;;;5072972;28;20031;-73
2023/03/07 01:46:18;;;;;;;29.10;13.57;;;8.70;51.20;;;;;;5073006;28;20021;-72
2023/03/07 01:48:55;;;;;;;22.45;12.75;;;8.60;51.40;;;;;;5087821;28;20069;-73
2023/03/07 01:51:21;;;;;;;21.42;11.32;;;8.60;51.30;;;;;;5075112;28;20016;-73
2023/03/07 01:53:49;;;;;;;21.85;12.80;;;8.60;51.30;;;;;;5093313;28;20489;-73
2023/03/07 01:56:15;;;;;;;22.55;11.43;;;8.60;51.30;;;;;;5093266;28;20135;-73
2023/03/07 01:58:41;;;;;;;27.60;13.85;;;8.60;51.30;;;;;;5092722;28;20386;-73
2023/03/07 02:01:11;;;;;;;23.58;12.77;;;8.60;51.30;;;;;;5092777;28;20020;-73
2023/03/07 02:03:59;;;;;;;27.60;13.80;;;8.60;51.40;;;;;;5093421;28;20416;-73
2023/03/07 02:06:27;;;;;;;26.00;13.25;;;8.60;51.40;;;;;;5092973;28;20017;-73
2023/03/07 02:08:55;;;;;;;25.30;13.73;;;8.60;51.30;;;;;;5090773;28;20077;-73
2023/03/07 02:11:22;;;;;;;21.48;12.57;;;8.60;51.40;;;;;;5074473;28;20092;-73
2023/03/07 02:13:48;;;;;;;25.88;13.52;;;8.60;51.30;;;;;;5072752;28;20112;-72
2023/03/07 02:16:14;;;;;;;27.90;13.73;;;8.60;51.30;;;;;;5072766;28;20103;-73
2023/03/07 02:18:44;;;;;;;21.48;12.50;;;8.60;51.40;;;;;;5053861;28;20140;-73
2023/03/07 02:21:29;;;;;;;21.48;12.05;;;8.50;51.50;;;;;;5080351;28;20162;-73
2023/03/07 02:24:25;;;;;;;23.83;12.80;;;8.50;51.60;;;;;;5073134;28;20025;-73
2023/03/07 02:26:54;;;;;;;19.85;10.88;;;8.50;51.70;;;;;;5072902;28;20470;-73
2023/03/07 02:29:20;;;;;;;25.90;13.80;;;8.50;51.60;;;;;;5054801;28;20428;-73
2023/03/07 02:31:46;;;;;;;22.73;12.27;;;8.50;51.80;;;;;;5073311;28;20017;-73
2023/03/07 02:34:27;;;;;;;24.83;14.10;;;8.50;51.60;;;;;;5072655;28;20024;-72
2023/03/07 02:37:03;;;;;;;35.85;14.30;;;8.50;51.70;;;;;;5072765;28;20028;-73
2023/03/07 02:39:29;;;;;;;25.27;13.13;;;8.50;51.80;;;;;;5073021;28;20103;-73
2023/03/07 02:42:10;;;;;;;34.30;14.50;;;8.50;51.90;;;;;;5072644;28;20031;-73
2023/03/07 02:44:36;;;;;;;22.63;12.45;;;8.40;52.00;;;;;;5072794;28;20024;-74
2023/03/07 02:47:02;;;;;;;21.92;13.15;;;8.40;51.90;;;;;;5073193;28;20036;-73
2023/03/07 02:49:27;;;;;;;27.95;14.85;;;8.40;52.00;;;;;;5072900;28;20024;-73
2023/03/07 02:51:57;;;;;;;23.90;13.57;;;8.40;52.20;;;;;;5062646;28;20028;-73
2023/03/07 02:54:24;;;;;;;22.92;13.45;;;8.30;52.20;;;;;;5075217;28;20017;-73
2023/03/07 02:56:49;;;;;;;21.67;12.10;;;8.40;52.30;;;;;;5072846;28;20021;-72
2023/03/07 02:59:15;;;;;;;20.65;11.82;;;8.30;52.20;;;;;;5072649;28;20043;-73
2023/03/07 03:01:41;;;;;;;24.33;12.98;;;8.40;52.90;;;;;;5073060;28;20036;-73
2023/03/07 03:04:07;;;;;;;23.38;12.80;;;8.40;52.60;;;;;;5054617;28;20154;-72
2023/03/07 03:06:33;;;;;;;23.95;12.65;;;8.30;52.70;;;;;;5072426;28;20155;-73
2023/03/07 03:08:59;;;;;;;29.08;13.05;;;8.30;52.80;;;;;;5072132;28;20048;-72
2023/03/07 03:11:25;;;;;;;20.95;12.13;;;8.20;52.80;;;;;;5074620;28;20150;-73
2023/03/07 03:13:51;;;;;;;21.38;12.63;;;8.20;52.80;;;;;;5058110;28;20108;-73
2023/03/07 03:16:16;;;;;;;20.58;11.93;;;8.20;52.60;;;;;;5075990;28;20475;-73
2023/03/07 03:18:42;;;;;;;21.77;12.32;;;8.20;52.50;;;;;;5076129;28;20020;-73
2023/03/07 03:21:10;;;;;;;22.13;12.52;;;8.30;52.50;;;;;;5076330;28;20419;-72
2023/03/07 03:23:36;;;;;;;21.33;10.90;;;8.30;53.10;;;;;;5075792;28;20028;-73
2023/03/07 03:26:06;;;;;;;25.42;13.23;;;8.30;52.50;;;;;;5092813;28;20024;-73
2023/03/07 03:28:33;;;;;;;21.63;11.93;;;8.30;52.60;;;;;;5096048;28;20350;-72
2023/03/07 03:31:02;;;;;;;21.80;12.05;;;8.30;52.60;;;;;;5096007;28;20081;-73
2023/03/07 03:33:29;;;;;;;27.13;14.48;;;8.40;52.60;;;;;;5094350;28;20032;-72
2023/03/07 03:35:56;;;;;;;21.63;13.77;;;8.30;52.90;;;;;;5068778;28;20469;-73
2023/03/07 03:38:22;;;;;;;22.35;12.15;;;8.30;52.90;;;;;;5057760;28;20028;-73
2023/03/07 03:40:48;;;;;;;22.48;12.80;;;8.30;52.90;;;;;;5075709;28;20542;-73
2023/03/07 03:43:14;;;;;;;21.65;12.50;;;8.30;53.00;;;;;;5075738;28;20025;-73
2023/03/07 03:45:40;;;;;;;24.85;11.95;;;8.30;53.00;;;;;;5057670;28;20481;-73
2023/03/07 03:48:07;;;;;;;25.35;12.52;;;8.30;53.00;;;;;;5075632;28;20047;-73
2023/03/07 03:50:33;;;;;;;24.88;13.10;;;8.20;53.00;;;;;;5075886;28;20516;-73
2023/03/07 03:52:59;;;;;;;20.55;11.55;;;8.30;53.10;;;;;;5075536;28;20033;-73
2023/03/07 03:55:25;;;;;;;21.20;11.50;;;8.30;53.00;;;;;;5075538;28;20024;-73
2023/03/07 03:57:51;;;;;;;21.73;12.40;;;8.30;53.00;;;;;;5075687;28;20466;-73
2023/03/07 04:00:18;;;;;;;22.92;11.90;;;8.30;53.00;;;;;;5075626;28;20039;-72
2023/03/07 04:02:45;;;;;;;23.70;13.18;;;8.30;53.10;;;;;;5075488;28;20470;-73
2023/03/07 04:05:11;;;;;;;21.95;13.02;;;8.30;53.00;;;;;;5075271;28;20024;-73
2023/03/07 04:07:38;;;;;;;22.20;12.43;;;8.30;53.00;;;;;;5056526;28;20095;-73
2023/03/07 04:10:04;;;;;;;24.08;13.27;;;8.30;53.00;;;;;;5078532;28;20028;-72
2023/03/07 04:12:30;;;;;;;21.77;11.90;;;8.30;53.10;;;;;;5075208;28;20029;-73
2023/03/07 04:14:56;;;;;;;22.75;12.35;;;8.30;53.10;;;;;;5075694;28;20063;-73
2023/03/07 04:17:22;;;;;;;23.92;12.15;;;8.30;53.10;;;;;;5075114;28;20052;-73
2023/03/07 04:19:48;;;;;;;19.90;11.32;;;8.30;53.00;;;;;;5075034;28;20033;-73
2023/03/07 04:22:14;;;;;;;23.17;12.88;;;8.30;53.00;;;;;;5074179;28;20092;-73
2023/03/07 04:24:39;;;;;;;22.25;12.13;;;8.30;53.10;;;;;;5075110;28;20029;-72
2023/03/07 04:27:06;;;;;;;21.60;11.73;;;8.40;53.10;;;;;;5075081;28;20031;-73
2023/03/07 04:29:32;;;;;;;25.77;12.02;;;8.40;53.10;;;;;;5074686;28;20351;-72
2023/03/07 04:31:58;;;;;;;23.45;12.50;;;8.30;53.00;;;;;;5070092;28;20029;-73
2023/03/07 04:34:24;;;;;;;23.67;13.10;;;8.30;53.00;;;;;;5074686;28;20051;-73
2023/03/07 04:36:50;;;;;;;25.05;11.82;;;8.30;52.90;;;;;;5072663;28;20482;-72
2023/03/07 04:39:17;;;;;;;21.90;12.32;;;8.40;52.90;;;;;;5075868;28;20036;-72
2023/03/07 04:41:43;;;;;;;27.05;12.45;;;8.40;52.90;;;;;;5094956;28;20528;-73
2023/03/07 04:44:08;;;;;;;22.02;12.10;;;8.40;52.80;;;;;;5078984;28;20163;-73
2023/03/07 04:46:34;;;;;;;27.13;13.25;;;8.40;52.80;;;;;;5073140;28;20020;-73
2023/03/07 04:49:00;;;;;;;25.75;11.55;;;8.30;52.70;;;;;;5091657;28;20023;-73
2023/03/07 04:51:26;;;;;;;26.70;13.60;;;8.40;52.90;;;;;;5094655;28;20035;-72
2023/03/07 04:53:51;;;;;;;28.55;14.40;;;8.30;52.90;;;;;;5094510;28;20099;-73
2023/03/07 04:56:17;;;;;;;21.40;12.88;;;8.30;52.80;;;;;;5094571;28;20019;-73
2023/03/07 04:58:43;;;;;;;22.30;11.90;;;8.30;52.70;;;;;;5094384;28;20032;-73
2023/03/07 05:01:10;;;;;;;22.70;12.35;;;8.30;52.70;;;;;;5076305;28;20020;-73
2023/03/07 05:03:36;;;;;;;23.15;12.10;;;8.30;52.70;;;;;;5094303;28;20051;-73
2023/03/07 05:06:04;;;;;;;26.58;12.90;;;8.30;52.80;;;;;;5094331;28;20020;-73
2023/03/07 05:08:31;;;;;;;25.42;14.15;;;8.30;52.90;;;;;;5090279;28;20468;-73
2023/03/07 05:10:57;;;;;;;25.70;13.55;;;8.30;53.00;;;;;;5074309;28;20103;-72
2023/03/07 05:13:22;;;;;;;26.27;13.75;;;8.30;53.00;;;;;;5073990;28;20024;-73
2023/03/07 05:15:52;;;;;;;27.45;13.70;;;8.30;52.90;;;;;;5073875;28;20385;-73
2023/03/07 05:18:18;;;;;;;30.05;15.38;;;8.30;53.00;;;;;;5073836;28;20028;-72
2023/03/07 05:20:44;;;;;;;29.48;14.20;;;8.30;53.10;;;;;;5073735;28;20035;-72
2023/03/07 05:23:10;;;;;;;24.42;13.52;;;8.30;53.10;;;;;;5073506;28;20432;-72
2023/03/07 05:25:36;;;;;;;29.42;14.27;;;8.20;53.00;;;;;;5073509;28;20021;-72
2023/03/07 05:28:02;;;;;;;32.08;15.90;;;8.20;53.00;;;;;;5055521;28;20111;-72
2023/03/07 05:30:28;;;;;;;26.70;14.25;;;8.20;53.00;;;;;;5073605;28;20016;-73
2023/03/07 05:32:54;;;;;;;31.42;15.73;;;8.20;53.00;;;;;;5080938;28;20081;-72
2023/03/07 05:35:23;;;;;;;26.60;15.65;;;8.20;53.10;;;;;;5056768;28;20040;-73
2023/03/07 05:37:49;;;;;;;28.92;16.25;;;8.20;53.20;;;;;;5073467;28;20025;-73
2023/03/07 05:40:16;;;;;;;31.27;16.40;;;8.20;53.20;;;;;;5073851;28;20024;-72
2023/03/07 05:42:42;;;;;;;27.00;14.80;;;8.20;53.30;;;;;;5073327;28;20035;-73
2023/03/07 05:45:09;;;;;;;30.05;16.20;;;8.10;53.30;;;;;;5055281;28;20028;-73
2023/03/07 05:47:35;;;;;;;29.45;15.85;;;8.10;53.30;;;;;;5071133;28;20020;-72
2023/03/07 05:50:01;;;;;;;24.95;12.80;;;8.10;53.30;;;;;;5062586;28;20042;-72
2023/03/07 05:52:27;;;;;;;24.73;13.77;;;8.10;53.20;;;;;;5073583;28;20537;-73
2023/03/07 05:54:54;;;;;;;23.92;13.43;;;8.10;53.20;;;;;;5073253;28;20032;-73
2023/03/07 05:57:20;;;;;;;23.83;13.00;;;8.20;53.30;;;;;;5073596;28;20029;-73
2023/03/07 05:59:47;;;;;;;26.92;13.27;;;8.20;53.30;;;;;;5055274;28;20028;-72
2023/03/07 06:02:13;;;;;;;22.85;12.82;;;8.20;53.30;;;;;;5073280;28;20020;-73
2023/03/07 06:04:38;;;;;;;28.77;13.23;;;8.20;53.30;;;;;;5073122;28;20075;-73
2023/03/07 06:07:04;;;;;;;23.48;12.23;;;8.20;53.30;;;;;;5073369;28;20020;-73
2023/03/07 06:09:30;;;;;;;32.47;13.52;;;8.30;53.30;;;;;;5077167;28;20075;-73
2023/03/07 06:11:56;;;;;;;24.17;13.27;;;8.30;53.40;;;;;;5078120;28;20086;-73
2023/03/07 06:14:22;;;;;;;25.17;12.75;;;8.30;53.50;;;;;;5055056;28;20028;-73
2023/03/07 06:16:48;;;;;;;27.15;12.98;;;8.40;53.50;;;;;;5055078;28;20466;-73
2023/03/07 06:19:14;;;;;;;21.42;12.75;;;8.40;53.60;;;;;;5072947;28;20037;-73
2023/03/07 06:21:41;;;;;;;24.30;13.23;;;8.40;53.70;;;;;;5073197;28;20021;-72
2023/03/07 06:24:07;;;;;;;28.55;14.15;;;8.50;53.70;;;;;;5072817;28;20056;-73
2023/03/07 06:26:33;;;;;;;22.00;12.65;;;8.50;53.80;;;;;;5073163;28;20046;-72
2023/03/07 06:28:59;;;;;;;28.80;14.35;;;8.50;53.80;;;;;;5072705;28;20081;-72
2023/03/07 06:31:25;;;;;;;30.17;14.35;;;8.50;54.00;;;;;;5054669;28;20474;-73
2023/03/07 06:33:51;;;;;;;25.98;13.80;;;8.60;54.00;;;;;;5072911;28;20020;-73
2023/03/07 06:36:18;;;;;;;23.10;12.80;;;8.60;53.90;;;;;;5072854;28;20024;-72
2023/03/07 06:38:45;;;;;;;22.95;12.48;;;8.60;53.80;;;;;;5072898;28;20377;-73
2023/03/07 06:41:11;;;;;;;23.85;12.60;;;8.60;53.70;;;;;;5072281;28;20028;-73
2023/03/07 06:43:36;;;;;;;22.33;13.55;;;8.70;53.60;;;;;;5072530;28;20029;-74
2023/03/07 06:46:04;;;;;;;22.25;12.32;;;8.70;53.60;;;;;;5074900;28;20079;-72
2023/03/07 06:48:32;;;;;;;25.95;12.77;;;8.80;53.60;;;;;;5076173;28;20017;-72
2023/03/07 06:50:58;;;;;;;24.75;13.40;;;8.80;53.50;;;;;;5058310;28;20024;-72
2023/03/07 06:53:24;;;;;;;23.63;11.95;;;8.90;53.50;;;;;;5076246;28;20104;-72
2023/03/07 06:55:51;;;;;;;30.63;12.45;;;8.90;53.40;;;;;;5076429;28;20054;-74
2023/03/07 06:58:17;;;;;;;28.75;13.20;;;9.00;53.40;;;;;;5076380;28;20056;-72
2023/03/07 07:00:43;;;;;;;28.33;15.32;;;9.00;53.40;;;;;;5076199;28;20031;-72
2023/03/07 07:03:14;;;;;;;34.33;15.52;;;9.00;53.40;;;;;;5076278;28;20410;-73
2023/03/07 07:05:40;;;;;;;25.73;14.18;;;9.00;53.40;;;;;;5075922;28;20017;-73
2023/03/07 07:08:06;;;;;;;27.05;14.98;;;9.10;53.30;;;;;;5075786;28;20124;-73
2023/03/07 07:10:31;;;;;;;26.40;13.43;;;9.10;53.10;;;;;;5075505;28;20103;-72
2023/03/07 07:12:57;;;;;;;28.85;14.43;;;9.10;53.00;;;;;;5075705;28;20037;-72
2023/03/07 07:15:23;;;;;;;23.98;14.07;;;9.20;52.90;;;;;;5076158;28;20147;-72
2023/03/07 07:17:50;;;;;;;27.58;14.30;;;9.20;52.70;;;;;;5076324;28;20025;-72
2023/03/07 07:20:17;;;;;;;27.40;13.52;;;9.30;52.30;;;;;;5075771;28;20028;-72
2023/03/07 07:22:43;;;;;;;22.27;11.18;;;9.30;52.30;;;;;;5076214;28;20025;-72
2023/03/07 07:25:09;;;;;;;25.10;13.30;;;9.40;52.40;;;;;;5074709;28;20103;-71
2023/03/07 07:27:35;;;;;;;23.73;12.40;;;9.40;52.20;;;;;;5075799;28;20048;-72
2023/03/07 07:30:05;;;;;;;37.13;15.02;;;9.50;52.20;;;;;;5075166;28;20019;-74
2023/03/07 07:32:31;;;;;;;26.70;13.55;;;9.60;52.20;;;;;;5071119;28;20037;-72
2023/03/07 07:34:59;;;;;;;22.08;12.00;;;9.60;52.10;;;;;;5075412;28;20024;-72
2023/03/07 07:37:27;;;;;;;22.52;12.63;;;9.70;52.10;;;;;;5066068;28;20198;-72
2023/03/07 07:39:55;;;;;;;24.42;14.25;;;9.80;52.00;;;;;;5075109;28;20127;-72
2023/03/07 07:42:22;;;;;;;23.65;13.45;;;9.80;51.70;;;;;;5073834;28;20389;-72
2023/03/07 07:44:50;;;;;;;19.55;11.65;;;9.90;51.60;;;;;;5075455;28;20024;-72
2023/03/07 07:47:16;;;;;;;23.42;12.07;;;9.90;51.60;;;;;;5074995;28;20103;-72
2023/03/07 07:49:41;;;;;;;21.98;12.10;;;10.00;51.40;;;;;;5075545;28;20103;-72
2023/03/07 07:52:07;;;;;;;23.45;12.20;;;10.10;51.30;;;;;;5074698;28;20029;-72
2023/03/07 07:54:33;;;;;;;20.35;11.80;;;10.20;51.00;;;;;;5075216;28;20059;-72
2023/03/07 07:56:59;;;;;;;19.10;11.40;;;10.20;50.90;;;;;;5074038;28;20028;-72
2023/03/07 07:59:25;;;;;;;21.35;11.65;;;10.30;50.60;;;;;;5075885;28;20111;-72
2023/03/07 08:01:50;;;;;;;21.85;12.23;;;10.40;50.40;;;;;;5075419;28;20029;-72
2023/03/07 08:04:16;;;;;;;22.95;12.57;;;10.50;50.40;;;;;;5074355;28;20033;-72
2023/03/07 08:06:43;;;;;;;20.83;12.45;;;10.50;49.30;;;;;;5074566;28;20382;-72
2023/03/07 08:09:09;;;;;;;25.15;13.73;;;10.60;49.30;;;;;;5074745;28;20059;-73
2023/03/07 08:11:35;;;;;;;22.25;12.75;;;10.60;48.40;;;;;;5074811;28;20028;-72
2023/03/07 08:14:02;;;;;;;22.73;12.38;;;10.60;48.70;;;;;;5074837;28;20025;-72
2023/03/07 08:16:28;;;;;;;20.73;11.25;;;10.70;48.70;;;;;;5072591;28;20032;-72
2023/03/07 08:18:55;;;;;;;17.83;10.75;;;10.80;48.70;;;;;;5074549;28;20469;-72
2023/03/07 08:21:23;;;;;;;19.02;10.18;;;10.80;48.40;;;;;;5068420;28;20370;-72
2023/03/07 08:23:50;;;;;;;22.15;11.38;;;10.90;48.70;;;;;;5074801;28;20016;-73
2023/03/07 08:26:16;;;;;;;21.60;12.10;;;11.10;48.40;;;;;;5074663;28;20473;-72
2023/03/07 08:28:42;;;;;;;17.58;10.77;;;11.20;47.90;;;;;;5074926;28;20025;-72
2023/03/07 08:31:11;;;;;;;25.85;12.07;;;11.30;47.90;;;;;;5075007;28;20023;-72
2023/03/07 08:33:37;;;;;;;18.20;11.50;;;11.40;46.50;;;;;;5073042;28;20020;-72
2023/03/07 08:36:03;;;;;;;18.75;11.65;;;11.40;46.60;;;;;;5072501;28;20028;-72
2023/03/07 08:38:29;;;;;;;17.05;10.50;;;11.50;46.20;;;;;;5073472;28;20032;-72
2023/03/07 08:41:02;;;;;;;33.42;10.23;;;11.60;46.00;;;;;;5074340;28;20028;-72
2023/03/07 08:43:29;;;;;;;19.70;11.18;;;11.70;45.50;;;;;;5072701;28;20115;-71
2023/03/07 08:45:56;;;;;;;19.20;10.88;;;11.70;45.80;;;;;;5074423;28;20101;-72
2023/03/07 08:48:25;;;;;;;17.25;10.00;;;11.80;45.10;;;;;;5069003;28;20029;-71
2023/03/07 08:50:51;;;;;;;19.10;10.00;;;11.80;44.90;;;;;;5067417;28;20028;-71
2023/03/07 08:53:17;;;;;;;16.58;9.95;;;11.90;44.60;;;;;;5073127;28;20035;-72
2023/03/07 08:55:43;;;;;;;19.90;11.18;;;11.90;43.80;;;;;;5066913;28;20029;-71
2023/03/07 08:58:09;;;;;;;18.98;10.90;;;11.90;44.00;;;;;;5070250;28;20074;-71
2023/03/07 09:00:36;;;;;;;19.23;10.30;;;11.90;43.20;;;;;;5073460;28;20054;-70
2023/03/07 09:03:03;;;;;;;17.88;10.80;;;11.90;43.60;;;;;;5073407;28;20414;-71
2023/03/07 09:05:29;;;;;;;21.88;10.85;;;11.90;42.80;;;;;;5074495;28;20024;-71
2023/03/07 09:07:55;;;;;;;19.60;9.82;;;11.90;42.90;;;;;;5078642;28;20040;-71
2023/03/07 09:10:21;;;;;;;18.77;10.20;;;12.00;43.10;;;;;;5094523;28;20069;-72
2023/03/07 09:12:47;;;;;;;15.73;10.32;;;11.90;42.50;;;;;;5094319;28;20381;-72
2023/03/07 09:15:13;;;;;;;17.90;10.13;;;12.00;43.00;;;;;;5076179;28;20028;-71
2023/03/07 09:17:39;;;;;;;25.70;10.50;;;11.90;42.90;;;;;;5094225;28;20557;-71
2023/03/07 09:20:06;;;;;;;19.25;9.52;;;12.00;42.70;;;;;;5076044;28;20536;-72
2023/03/07 09:22:32;;;;;;;18.75;10.45;;;12.00;42.60;;;;;;5094056;28;20052;-72
2023/03/07 09:24:57;;;;;;;21.30;9.52;;;12.00;42.20;;;;;;5094377;28;20074;-72
2023/03/07 09:27:23;;;;;;;18.85;10.65;;;12.00;42.00;;;;;;5094008;28;20021;-71
2023/03/07 09:29:49;;;;;;;17.70;9.15;;;12.00;42.40;;;;;;5093809;28;20052;-72
2023/03/07 09:32:15;;;;;;;17.73;9.98;;;12.00;42.30;;;;;;5094430;28;20058;-72
2023/03/07 09:34:41;;;;;;;18.77;9.95;;;12.00;42.50;;;;;;5093909;28;20055;-72
2023/03/07 09:37:07;;;;;;;15.77;9.52;;;12.00;41.30;;;;;;5092351;28;20085;-72
2023/03/07 09:39:33;;;;;;;13.10;8.25;;;12.00;41.80;;;;;;5093343;28;20024;-71
2023/03/07 09:42:15;;;;;;;19.25;8.88;;;12.10;42.10;;;;;;5093677;28;20500;-71
2023/03/07 09:44:56;;;;;;;15.23;8.95;;;12.00;41.10;;;;;;5093853;28;20024;-71
2023/03/07 09:47:46;;;;;;;11.82;8.13;;;12.10;40.70;;;;;;5094338;28;20024;-72
2023/03/07 09:51:00;;;;;;;14.32;9.02;;;12.10;40.00;;;;;;5093686;28;20024;-71
2023/03/07 09:53:42;;;;;;;13.90;8.32;;;12.10;39.70;;;;;;5094026;28;20024;-71
2023/03/07 09:56:14;;;;;;;15.00;8.38;;;12.20;39.80;;;;;;5093948;28;20032;-72
2023/03/07 09:58:44;;;;;;;20.08;9.77;;;12.30;40.00;;;;;;5093616;28;20105;-71
2023/03/07 10:01:14;;;;;;;13.80;8.23;;;12.30;39.10;;;;;;5084042;28;20469;-72
2023/03/07 10:03:50;;;;;;;16.02;9.48;;;12.30;39.30;;;;;;5072931;28;20039;-71
2023/03/07 10:06:39;;;;;;;16.17;9.38;;;12.40;38.50;;;;;;5073388;28;20025;-71
2023/03/07 10:09:10;;;;;;;18.05;9.48;;;12.30;38.30;;;;;;5061271;28;20051;-71
2023/03/07 10:12:03;;;;;;;15.00;9.07;;;12.40;38.60;;;;;;5073340;28;20386;-72
2023/03/07 10:14:50;;;;;;;17.60;9.25;;;12.40;38.80;;;;;;5073259;28;20028;-72
2023/03/07 10:17:55;;;;;;;13.02;8.27;;;12.50;38.60;;;;;;5072226;28;20034;-72
2023/03/07 10:20:24;;;;;;;17.25;8.60;;;12.60;38.70;;;;;;5075728;28;20020;-71
2023/03/07 10:23:23;;;;;;;16.20;8.30;;;12.60;38.30;;;;;;5079749;28;20498;-71
2023/03/07 10:26:09;;;;;;;19.80;8.70;;;12.70;38.40;;;;;;5080056;28;20099;-71
2023/03/07 10:28:38;;;;;;;16.27;8.90;;;12.80;38.00;;;;;;5080031;28;20020;-72
2023/03/07 10:31:14;;;;;;;15.93;9.30;;;12.80;38.30;;;;;;5079928;28;20366;-71
2023/03/07 10:33:44;;;;;;;15.25;8.60;;;12.90;38.10;;;;;;5078407;28;20390;-72
2023/03/07 10:36:19;;;;;;;12.65;8.32;;;12.90;38.10;;;;;;5078503;28;20389;-72
2023/03/07 10:39:25;;;;;;;18.45;9.50;;;12.90;38.20;;;;;;5058297;28;20474;-71
2023/03/07 10:41:52;;;;;;;15.27;9.15;;;13.00;38.00;;;;;;5040160;28;20045;-71
2023/03/07 10:44:20;;;;;;;18.60;9.85;;;13.10;37.90;;;;;;5059543;28;20024;-71
2023/03/07 10:46:50;;;;;;;13.35;8.02;;;13.00;37.10;;;;;;5059639;28;20052;-72
2023/03/07 10:49:36;;;;;;;12.10;7.80;;;13.10;37.50;;;;;;5059618;28;20029;-72
2023/03/07 10:52:31;;;;;;;17.15;9.00;;;13.10;37.80;;;;;;5059919;28;20489;-72
2023/03/07 10:55:30;;;;;;;17.02;9.63;;;13.10;37.40;;;;;;5059672;28;20021;-71
2023/03/07 10:58:18;;;;;;;18.50;9.90;;;13.10;37.30;;;;;;5058282;28;20086;-72
2023/03/07 11:00:46;;;;;;;12.73;8.13;;;13.10;37.50;;;;;;5076755;28;20107;-73
2023/03/07 11:03:28;;;;;;;15.10;8.05;;;13.10;37.50;;;;;;5078063;28;20035;-72
2023/03/07 11:05:54;;;;;;;13.35;8.07;;;13.10;37.10;;;;;;5080393;28;20382;-72
2023/03/07 11:08:32;;;;;;;13.13;8.18;;;13.10;37.10;;;;;;5088307;28;20208;-72
2023/03/07 11:11:03;;;;;;;13.85;7.80;;;13.10;36.90;;;;;;5100017;28;20098;-72
2023/03/07 11:13:30;;;;;;;12.75;8.23;;;13.10;37.50;;;;;;5099720;28;20485;-72
2023/03/07 11:16:28;;;;;;;13.88;8.85;;;13.10;37.30;;;;;;5081345;28;20036;-72
2023/03/07 11:18:55;;;;;;;12.30;8.10;;;13.10;37.10;;;;;;4997918;28;20038;-72
2023/03/07 11:21:34;;;;;;;12.02;8.15;;;13.10;37.30;;;;;;4997891;28;20507;-72
2023/03/07 11:24:03;;;;;;;13.45;8.57;;;13.10;37.00;;;;;;4997850;28;20042;-72
2023/03/07 11:26:39;;;;;;;14.50;7.40;;;13.00;36.90;;;;;;4997953;28;20027;-72
2023/03/07 11:29:10;;;;;;;11.45;6.85;;;13.00;37.10;;;;;;4981556;28;20117;-72
2023/03/07 11:32:03;;;;;;;12.25;7.72;;;13.10;37.30;;;;;;4996837;28;20034;-72
2023/03/07 11:34:58;;;;;;;10.70;7.43;;;13.10;37.30;;;;;;4995418;28;20035;-72
2023/03/07 11:38:28;;;;;;;12.52;7.63;;;13.10;37.00;;;;;;4987037;28;20026;-72
2023/03/07 11:41:03;;;;;;;11.88;7.47;;;13.20;37.30;;;;;;4936718;29;20039;-72
2023/03/07 11:43:47;;;;;;;12.95;7.20;;;13.20;37.10;;;;;;4936544;29;20036;-72
2023/03/07 11:46:35;;;;;;;10.05;6.60;;;13.20;36.60;;;;;;4961680;28;20062;-72
2023/03/07 11:49:35;;;;;;;12.45;7.60;;;13.20;36.70;;;;;;4975244;28;20057;-72
2023/03/07 11:52:31;;;;;;;15.50;7.97;;;13.30;36.00;;;;;;4975611;28;20369;-72
2023/03/07 11:55:36;;;;;;;12.35;7.95;;;13.20;36.30;;;;;;5013025;28;20371;-72
2023/03/07 11:58:26;;;;;;;13.63;8.27;;;13.20;36.40;;;;;;5074941;28;20037;-72
2023/03/07 12:01:20;;;;;;;11.02;7.07;;;13.30;36.50;;;;;;5075513;28;20025;-72
2023/03/07 12:04:10;;;;;;;17.05;8.43;;;13.30;36.70;;;;;;5075147;28;20068;-72
2023/03/07 12:06:57;;;;;;;12.93;7.03;;;13.40;35.70;;;;;;5074542;28;20033;-73
2023/03/07 12:10:01;;;;;;;13.65;8.27;;;13.30;36.40;;;;;;5075251;28;20070;-72
2023/03/07 12:12:59;;;;;;;15.45;8.43;;;13.40;36.40;;;;;;4993948;28;20034;-72
2023/03/07 12:15:38;;;;;;;14.27;8.10;;;13.40;36.10;;;;;;5036216;28;20403;-72
2023/03/07 12:18:22;;;;;;;13.65;8.23;;;13.40;36.10;;;;;;5075813;28;20078;-72
2023/03/07 12:20:59;;;;;;;15.13;9.27;;;13.40;35.90;;;;;;5075170;28;20531;-72
2023/03/07 12:23:34;;;;;;;16.88;9.65;;;13.40;35.50;;;;;;5074892;28;20115;-73
2023/03/07 12:26:10;;;;;;;15.95;9.77;;;13.30;35.50;;;;;;5075114;28;20024;-72
2023/03/07 12:28:48;;;;;;;14.10;8.95;;;13.30;35.60;;;;;;5075380;28;20029;-72
2023/03/07 12:31:21;;;;;;;14.48;8.70;;;13.30;35.70;;;;;;5075257;28;20482;-72
2023/03/07 12:34:05;;;;;;;17.52;8.07;;;13.30;36.00;;;;;;5075177;28;20024;-72
2023/03/07 12:36:32;;;;;;;20.13;9.55;;;13.30;36.40;;;;;;5075558;28;20056;-72
2023/03/07 12:39:23;;;;;;;13.63;8.10;;;13.30;35.80;;;;;;5074108;28;20036;-72
2023/03/07 12:42:15;;;;;;;15.35;9.88;;;13.20;36.30;;;;;;5074948;28;20032;-72
2023/03/07 12:44:48;;;;;;;14.90;8.98;;;13.30;36.40;;;;;;5074148;28;20107;-72
2023/03/07 12:47:31;;;;;;;15.07;9.02;;;13.30;36.20;;;;;;5074897;28;20016;-72
2023/03/07 12:50:19;;;;;;;13.32;8.40;;;13.30;36.20;;;;;;5074752;28;20029;-72
2023/03/07 12:52:49;;;;;;;14.25;8.25;;;13.30;36.40;;;;;;5074850;28;20063;-72